sensor_id;sensor_type;location;lat;lon;timestamp;P1;durP1;ratioP1;P2;durP2;ratioP2
16139;SDS011;8175;49.326;12.690;2023-03-01T00:01:59;18.13;;;12.43;;
16139;SDS011;8175;49.326;12.690;2023-03-01T00:04:25;20.37;;;13.10;;
16139;SDS011;8175;49.326;12.690;2023-03-01T00:06:51;18.93;;;13.20;;
16139;SDS011;8175;49.326;12.690;2023-03-01T00:09:17;18.10;;;12.40;;
16139;SDS011;8175;49.326;12.690;2023-03-01T00:11:44;21.37;;;12.57;;
16139;SDS011;8175;49.326;12.690;2023-03-01T00:14:09;16.57;;;10.70;;
16139;SDS011;8175;49.326;12.690;2023-03-01T00:16:36;19.60;;;12.80;;
16139;SDS011;8175;49.326;12.690;2023-03-01T00:19:04;21.03;;;12.93;;
16139;SDS011;8175;49.326;12.690;2023-03-01T00:21:31;16.57;;;12.03;;
16139;SDS011;8175;49.326;12.690;2023-03-01T00:23:58;22.20;;;12.60;;
16139;SDS011;8175;49.326;12.690;2023-03-01T00:26:25;20.43;;;12.83;;
16139;SDS011;8175;49.326;12.690;2023-03-01T00:28:51;20.13;;;13.27;;
16139;SDS011;8175;49.326;12.690;2023-03-01T00:31:21;19.53;;;13.67;;
16139;SDS011;8175;49.326;12.690;2023-03-01T00:33:48;17.73;;;12.47;;
16139;SDS011;8175;49.326;12.690;2023-03-01T00:36:16;20.13;;;13.53;;
16139;SDS011;8175;49.326;12.690;2023-03-01T00:38:43;18.83;;;12.47;;
16139;SDS011;8175;49.326;12.690;2023-03-01T00:41:10;18.47;;;12.07;;
16139;SDS011;8175;49.326;12.690;2023-03-01T00:43:38;20.27;;;13.10;;
16139;SDS011;8175;49.326;12.690;2023-03-01T00:46:05;17.93;;;13.33;;
16139;SDS011;8175;49.326;12.690;2023-03-01T00:48:33;18.17;;;12.70;;
16139;SDS011;8175;49.326;12.690;2023-03-01T00:51:16;16.37;;;12.13;;
16139;SDS011;8175;49.326;12.690;2023-03-01T00:53:43;19.53;;;12.30;;
16139;SDS011;8175;49.326;12.690;2023-03-01T00:56:10;18.30;;;12.07;;
16139;SDS011;8175;49.326;12.690;2023-03-01T00:58:38;17.43;;;12.10;;
16139;SDS011;8175;49.326;12.690;2023-03-01T01:01:11;21.07;;;13.33;;
16139;SDS011;8175;49.326;12.690;2023-03-01T01:04:03;19.73;;;13.03;;
16139;SDS011;8175;49.326;12.690;2023-03-01T01:06:33;23.33;;;14.17;;
16139;SDS011;8175;49.326;12.690;2023-03-01T01:09:04;19.00;;;12.33;;
16139;SDS011;8175;49.326;12.690;2023-03-01T01:11:31;19.07;;;14.60;;
16139;SDS011;8175;49.326;12.690;2023-03-01T01:13:58;21.63;;;13.90;;
16139;SDS011;8175;49.326;12.690;2023-03-01T01:16:25;20.57;;;14.20;;
16139;SDS011;8175;49.326;12.690;2023-03-01T01:18:52;20.67;;;12.43;;
16139;SDS011;8175;49.326;12.690;2023-03-01T01:21:19;21.17;;;13.73;;
16139;SDS011;8175;49.326;12.690;2023-03-01T01:23:47;21.90;;;13.90;;
16139;SDS011;8175;49.326;12.690;2023-03-01T01:26:15;20.87;;;13.43;;
16139;SDS011;8175;49.326;12.690;2023-03-01T01:28:43;19.50;;;13.30;;
16139;SDS011;8175;49.326;12.690;2023-03-01T01:31:08;21.80;;;14.70;;
16139;SDS011;8175;49.326;12.690;2023-03-01T01:33:34;21.07;;;13.77;;
16139;SDS011;8175;49.326;12.690;2023-03-01T01:36:00;20.43;;;13.27;;
16139;SDS011;8175;49.326;12.690;2023-03-01T01:38:26;23.07;;;16.37;;
16139;SDS011;8175;49.326;12.690;2023-03-01T01:40:51;20.83;;;12.83;;
16139;SDS011;8175;49.326;12.690;2023-03-01T01:43:22;20.07;;;13.57;;
16139;SDS011;8175;49.326;12.690;2023-03-01T01:45:56;19.33;;;13.43;;
16139;SDS011;8175;49.326;12.690;2023-03-01T01:48:34;21.63;;;14.27;;
16139;SDS011;8175;49.326;12.690;2023-03-01T01:51:13;19.50;;;13.67;;
16139;SDS011;8175;49.326;12.690;2023-03-01T01:53:42;22.53;;;14.07;;
16139;SDS011;8175;49.326;12.690;2023-03-01T01:56:10;19.37;;;13.50;;
16139;SDS011;8175;49.326;12.690;2023-03-01T01:58:37;18.40;;;13.67;;
16139;SDS011;8175;49.326;12.690;2023-03-01T02:01:04;26.50;;;15.60;;
16139;SDS011;8175;49.326;12.690;2023-03-01T02:03:31;22.90;;;14.67;;
16139;SDS011;8175;49.326;12.690;2023-03-01T02:08:42;23.87;;;15.13;;
16139;SDS011;8175;49.326;12.690;2023-03-01T02:11:10;20.47;;;14.00;;
16139;SDS011;8175;49.326;12.690;2023-03-01T02:13:39;21.43;;;14.00;;
16139;SDS011;8175;49.326;12.690;2023-03-01T02:16:09;23.10;;;15.03;;
16139;SDS011;8175;49.326;12.690;2023-03-01T02:18:37;24.20;;;15.20;;
16139;SDS011;8175;49.326;12.690;2023-03-01T02:24:28;23.10;;;14.30;;
16139;SDS011;8175;49.326;12.690;2023-03-01T02:26:52;19.00;;;13.93;;
16139;SDS011;8175;49.326;12.690;2023-03-01T02:29:37;21.73;;;13.80;;
16139;SDS011;8175;49.326;12.690;2023-03-01T02:32:03;23.87;;;14.47;;
16139;SDS011;8175;49.326;12.690;2023-03-01T02:34:30;20.20;;;14.77;;
16139;SDS011;8175;49.326;12.690;2023-03-01T02:37:00;24.90;;;15.50;;
16139;SDS011;8175;49.326;12.690;2023-03-01T02:39:52;25.60;;;14.60;;
16139;SDS011;8175;49.326;12.690;2023-03-01T02:42:37;20.20;;;13.90;;
16139;SDS011;8175;49.326;12.690;2023-03-01T02:45:09;19.93;;;14.00;;
16139;SDS011;8175;49.326;12.690;2023-03-01T02:47:35;24.47;;;15.07;;
16139;SDS011;8175;49.326;12.690;2023-03-01T02:50:01;23.53;;;13.70;;
16139;SDS011;8175;49.326;12.690;2023-03-01T02:52:29;22.50;;;14.03;;
16139;SDS011;8175;49.326;12.690;2023-03-01T02:55:12;20.13;;;13.53;;
16139;SDS011;8175;49.326;12.690;2023-03-01T02:57:43;21.13;;;14.97;;
16139;SDS011;8175;49.326;12.690;2023-03-01T03:00:11;20.43;;;13.70;;
16139;SDS011;8175;49.326;12.690;2023-03-01T03:02:44;22.53;;;13.97;;
16139;SDS011;8175;49.326;12.690;2023-03-01T03:05:13;21.37;;;14.17;;
16139;SDS011;8175;49.326;12.690;2023-03-01T03:07:44;21.43;;;13.53;;
16139;SDS011;8175;49.326;12.690;2023-03-01T03:10:13;20.33;;;14.50;;
16139;SDS011;8175;49.326;12.690;2023-03-01T03:12:44;21.47;;;14.03;;
16139;SDS011;8175;49.326;12.690;2023-03-01T03:15:17;24.00;;;15.07;;
16139;SDS011;8175;49.326;12.690;2023-03-01T03:17:43;23.10;;;14.53;;
16139;SDS011;8175;49.326;12.690;2023-03-01T03:20:09;20.70;;;13.93;;
16139;SDS011;8175;49.326;12.690;2023-03-01T03:22:40;21.33;;;15.00;;
16139;SDS011;8175;49.326;12.690;2023-03-01T03:25:07;20.17;;;14.20;;
16139;SDS011;8175;49.326;12.690;2023-03-01T03:27:35;22.93;;;14.93;;
16139;SDS011;8175;49.326;12.690;2023-03-01T03:30:03;23.27;;;15.33;;
16139;SDS011;8175;49.326;12.690;2023-03-01T03:32:34;22.03;;;14.57;;
16139;SDS011;8175;49.326;12.690;2023-03-01T03:35:04;23.87;;;15.53;;
16139;SDS011;8175;49.326;12.690;2023-03-01T03:37:39;24.23;;;15.80;;
16139;SDS011;8175;49.326;12.690;2023-03-01T03:40:24;19.13;;;14.23;;
16139;SDS011;8175;49.326;12.690;2023-03-01T03:42:50;18.57;;;13.80;;
16139;SDS011;8175;49.326;12.690;2023-03-01T03:45:16;23.27;;;14.83;;
16139;SDS011;8175;49.326;12.690;2023-03-01T03:47:42;22.50;;;14.83;;
16139;SDS011;8175;49.326;12.690;2023-03-01T03:50:12;21.37;;;15.23;;
16139;SDS011;8175;49.326;12.690;2023-03-01T03:52:40;24.10;;;14.33;;
16139;SDS011;8175;49.326;12.690;2023-03-01T03:55:06;21.90;;;14.57;;
16139;SDS011;8175;49.326;12.690;2023-03-01T03:57:36;19.70;;;13.87;;
16139;SDS011;8175;49.326;12.690;2023-03-01T04:00:07;20.90;;;14.40;;
16139;SDS011;8175;49.326;12.690;2023-03-01T04:02:41;21.00;;;13.80;;
16139;SDS011;8175;49.326;12.690;2023-03-01T04:05:08;22.63;;;14.10;;
16139;SDS011;8175;49.326;12.690;2023-03-01T04:07:36;23.80;;;14.77;;
16139;SDS011;8175;49.326;12.690;2023-03-01T04:10:03;19.87;;;14.13;;
16139;SDS011;8175;49.326;12.690;2023-03-01T04:12:31;20.63;;;14.00;;
16139;SDS011;8175;49.326;12.690;2023-03-01T04:14:58;20.73;;;13.70;;
16139;SDS011;8175;49.326;12.690;2023-03-01T04:17:25;21.03;;;13.40;;
16139;SDS011;8175;49.326;12.690;2023-03-01T04:19:50;19.90;;;12.10;;
16139;SDS011;8175;49.326;12.690;2023-03-01T04:22:16;18.87;;;13.13;;
16139;SDS011;8175;49.326;12.690;2023-03-01T04:24:43;20.77;;;13.83;;
16139;SDS011;8175;49.326;12.690;2023-03-01T04:27:10;20.40;;;12.60;;
16139;SDS011;8175;49.326;12.690;2023-03-01T04:29:36;15.27;;;11.67;;
16139;SDS011;8175;49.326;12.690;2023-03-01T04:32:02;15.43;;;12.40;;
16139;SDS011;8175;49.326;12.690;2023-03-01T04:34:28;17.43;;;12.07;;
16139;SDS011;8175;49.326;12.690;2023-03-01T04:36:54;20.10;;;13.77;;
16139;SDS011;8175;49.326;12.690;2023-03-01T04:39:20;18.77;;;12.73;;
16139;SDS011;8175;49.326;12.690;2023-03-01T04:41:46;17.40;;;12.80;;
16139;SDS011;8175;49.326;12.690;2023-03-01T04:44:12;19.73;;;11.60;;
16139;SDS011;8175;49.326;12.690;2023-03-01T04:46:38;15.07;;;11.63;;
16139;SDS011;8175;49.326;12.690;2023-03-01T04:49:03;17.97;;;12.93;;
16139;SDS011;8175;49.326;12.690;2023-03-01T04:51:30;16.63;;;11.20;;
16139;SDS011;8175;49.326;12.690;2023-03-01T04:53:57;20.10;;;11.70;;
16139;SDS011;8175;49.326;12.690;2023-03-01T04:56:23;16.67;;;12.87;;
16139;SDS011;8175;49.326;12.690;2023-03-01T04:58:49;19.03;;;12.70;;
16139;SDS011;8175;49.326;12.690;2023-03-01T05:01:19;16.20;;;11.67;;
16139;SDS011;8175;49.326;12.690;2023-03-01T05:03:48;18.37;;;12.80;;
16139;SDS011;8175;49.326;12.690;2023-03-01T05:06:15;16.53;;;11.20;;
16139;SDS011;8175;49.326;12.690;2023-03-01T05:08:42;20.57;;;12.93;;
16139;SDS011;8175;49.326;12.690;2023-03-01T05:11:08;15.77;;;11.30;;
16139;SDS011;8175;49.326;12.690;2023-03-01T05:13:35;19.03;;;12.53;;
16139;SDS011;8175;49.326;12.690;2023-03-01T05:16:02;16.53;;;11.40;;
16139;SDS011;8175;49.326;12.690;2023-03-01T05:18:31;19.97;;;11.97;;
16139;SDS011;8175;49.326;12.690;2023-03-01T05:21:05;18.87;;;11.63;;
16139;SDS011;8175;49.326;12.690;2023-03-01T05:23:32;17.77;;;10.27;;
16139;SDS011;8175;49.326;12.690;2023-03-01T05:25:59;17.67;;;11.70;;
16139;SDS011;8175;49.326;12.690;2023-03-01T05:28:29;17.57;;;11.47;;
16139;SDS011;8175;49.326;12.690;2023-03-01T05:30:55;17.33;;;12.10;;
16139;SDS011;8175;49.326;12.690;2023-03-01T05:33:22;15.53;;;10.47;;
16139;SDS011;8175;49.326;12.690;2023-03-01T05:35:48;14.70;;;9.93;;
16139;SDS011;8175;49.326;12.690;2023-03-01T05:38:15;18.20;;;9.50;;
16139;SDS011;8175;49.326;12.690;2023-03-01T05:40:42;13.40;;;9.53;;
16139;SDS011;8175;49.326;12.690;2023-03-01T05:43:09;14.97;;;9.67;;
16139;SDS011;8175;49.326;12.690;2023-03-01T05:45:36;16.23;;;10.40;;
16139;SDS011;8175;49.326;12.690;2023-03-01T05:48:03;18.33;;;11.83;;
16139;SDS011;8175;49.326;12.690;2023-03-01T05:50:31;18.37;;;12.40;;
16139;SDS011;8175;49.326;12.690;2023-03-01T05:53:03;15.23;;;11.53;;
16139;SDS011;8175;49.326;12.690;2023-03-01T05:55:33;15.20;;;11.33;;
16139;SDS011;8175;49.326;12.690;2023-03-01T05:58:04;14.60;;;10.83;;
16139;SDS011;8175;49.326;12.690;2023-03-01T06:00:31;16.13;;;11.40;;
16139;SDS011;8175;49.326;12.690;2023-03-01T06:02:58;13.97;;;9.87;;
16139;SDS011;8175;49.326;12.690;2023-03-01T06:05:25;15.77;;;10.67;;
16139;SDS011;8175;49.326;12.690;2023-03-01T06:07:52;17.07;;;11.53;;
16139;SDS011;8175;49.326;12.690;2023-03-01T06:10:18;16.43;;;10.47;;
16139;SDS011;8175;49.326;12.690;2023-03-01T06:12:45;17.47;;;12.63;;
16139;SDS011;8175;49.326;12.690;2023-03-01T06:15:12;19.30;;;12.23;;
16139;SDS011;8175;49.326;12.690;2023-03-01T06:17:40;14.90;;;10.83;;
16139;SDS011;8175;49.326;12.690;2023-03-01T06:20:10;18.80;;;11.40;;
16139;SDS011;8175;49.326;12.690;2023-03-01T06:22:41;14.43;;;11.00;;
16139;SDS011;8175;49.326;12.690;2023-03-01T06:25:08;19.17;;;12.47;;
16139;SDS011;8175;49.326;12.690;2023-03-01T06:27:37;16.53;;;11.57;;
16139;SDS011;8175;49.326;12.690;2023-03-01T06:30:03;15.83;;;11.63;;
16139;SDS011;8175;49.326;12.690;2023-03-01T06:32:29;23.47;;;14.23;;
16139;SDS011;8175;49.326;12.690;2023-03-01T06:34:56;22.57;;;14.23;;
16139;SDS011;8175;49.326;12.690;2023-03-01T06:37:23;23.27;;;14.17;;
16139;SDS011;8175;49.326;12.690;2023-03-01T06:39:49;19.53;;;13.70;;
16139;SDS011;8175;49.326;12.690;2023-03-01T06:42:15;19.87;;;13.77;;
16139;SDS011;8175;49.326;12.690;2023-03-01T06:44:41;22.77;;;15.27;;
16139;SDS011;8175;49.326;12.690;2023-03-01T06:47:07;20.30;;;14.50;;
16139;SDS011;8175;49.326;12.690;2023-03-01T06:49:32;29.83;;;14.40;;
16139;SDS011;8175;49.326;12.690;2023-03-01T06:51:58;22.00;;;14.70;;
16139;SDS011;8175;49.326;12.690;2023-03-01T06:54:24;22.93;;;14.27;;
16139;SDS011;8175;49.326;12.690;2023-03-01T06:56:49;20.87;;;14.40;;
16139;SDS011;8175;49.326;12.690;2023-03-01T06:59:16;18.23;;;12.70;;
16139;SDS011;8175;49.326;12.690;2023-03-01T07:01:42;22.60;;;13.37;;
16139;SDS011;8175;49.326;12.690;2023-03-01T07:04:08;24.63;;;15.33;;
16139;SDS011;8175;49.326;12.690;2023-03-01T07:06:35;22.57;;;13.23;;
16139;SDS011;8175;49.326;12.690;2023-03-01T07:09:00;21.40;;;14.40;;
16139;SDS011;8175;49.326;12.690;2023-03-01T07:11:26;18.70;;;14.00;;
16139;SDS011;8175;49.326;12.690;2023-03-01T07:13:52;22.43;;;14.00;;
16139;SDS011;8175;49.326;12.690;2023-03-01T07:16:18;22.17;;;13.47;;
16139;SDS011;8175;49.326;12.690;2023-03-01T07:18:45;19.97;;;12.77;;
16139;SDS011;8175;49.326;12.690;2023-03-01T07:21:11;18.00;;;12.47;;
16139;SDS011;8175;49.326;12.690;2023-03-01T07:23:38;20.03;;;12.57;;
16139;SDS011;8175;49.326;12.690;2023-03-01T07:26:04;22.83;;;13.70;;
16139;SDS011;8175;49.326;12.690;2023-03-01T07:28:29;19.17;;;12.90;;
16139;SDS011;8175;49.326;12.690;2023-03-01T07:31:00;18.67;;;12.80;;
16139;SDS011;8175;49.326;12.690;2023-03-01T07:33:26;19.87;;;12.67;;
16139;SDS011;8175;49.326;12.690;2023-03-01T07:35:56;20.73;;;12.43;;
16139;SDS011;8175;49.326;12.690;2023-03-01T07:38:25;16.63;;;11.80;;
16139;SDS011;8175;49.326;12.690;2023-03-01T07:40:51;19.83;;;12.33;;
16139;SDS011;8175;49.326;12.690;2023-03-01T07:43:16;15.97;;;11.07;;
16139;SDS011;8175;49.326;12.690;2023-03-01T07:45:42;21.33;;;12.07;;
16139;SDS011;8175;49.326;12.690;2023-03-01T07:48:08;15.53;;;10.73;;
16139;SDS011;8175;49.326;12.690;2023-03-01T07:50:34;17.50;;;10.97;;
16139;SDS011;8175;49.326;12.690;2023-03-01T07:53:00;15.40;;;10.00;;
16139;SDS011;8175;49.326;12.690;2023-03-01T07:55:25;15.57;;;10.50;;
16139;SDS011;8175;49.326;12.690;2023-03-01T07:57:51;13.93;;;9.97;;
16139;SDS011;8175;49.326;12.690;2023-03-01T08:00:17;13.83;;;9.33;;
16139;SDS011;8175;49.326;12.690;2023-03-01T08:02:43;13.73;;;9.70;;
16139;SDS011;8175;49.326;12.690;2023-03-01T08:05:09;14.37;;;9.47;;
16139;SDS011;8175;49.326;12.690;2023-03-01T08:07:35;12.87;;;9.57;;
16139;SDS011;8175;49.326;12.690;2023-03-01T08:10:01;13.77;;;9.70;;
16139;SDS011;8175;49.326;12.690;2023-03-01T08:12:27;15.13;;;9.83;;
16139;SDS011;8175;49.326;12.690;2023-03-01T08:14:53;14.93;;;9.60;;
16139;SDS011;8175;49.326;12.690;2023-03-01T08:17:19;12.30;;;10.17;;
16139;SDS011;8175;49.326;12.690;2023-03-01T08:19:44;16.33;;;10.57;;
16139;SDS011;8175;49.326;12.690;2023-03-01T08:22:10;13.40;;;10.70;;
16139;SDS011;8175;49.326;12.690;2023-03-01T08:24:36;14.03;;;9.53;;
16139;SDS011;8175;49.326;12.690;2023-03-01T08:27:02;14.97;;;9.63;;
16139;SDS011;8175;49.326;12.690;2023-03-01T08:29:30;11.07;;;8.67;;
16139;SDS011;8175;49.326;12.690;2023-03-01T08:31:56;12.93;;;8.80;;
16139;SDS011;8175;49.326;12.690;2023-03-01T08:34:22;13.33;;;9.63;;
16139;SDS011;8175;49.326;12.690;2023-03-01T08:36:47;9.87;;;7.53;;
16139;SDS011;8175;49.326;12.690;2023-03-01T08:39:16;12.33;;;8.43;;
16139;SDS011;8175;49.326;12.690;2023-03-01T08:41:41;13.03;;;9.00;;
16139;SDS011;8175;49.326;12.690;2023-03-01T08:44:07;13.27;;;8.30;;
16139;SDS011;8175;49.326;12.690;2023-03-01T08:46:37;9.77;;;7.50;;
16139;SDS011;8175;49.326;12.690;2023-03-01T08:49:04;8.10;;;6.67;;
16139;SDS011;8175;49.326;12.690;2023-03-01T08:51:34;12.20;;;8.30;;
16139;SDS011;8175;49.326;12.690;2023-03-01T08:54:05;8.83;;;7.10;;
16139;SDS011;8175;49.326;12.690;2023-03-01T08:56:34;8.87;;;5.90;;
16139;SDS011;8175;49.326;12.690;2023-03-01T08:59:00;7.73;;;5.37;;
16139;SDS011;8175;49.326;12.690;2023-03-01T09:01:26;9.00;;;5.77;;
16139;SDS011;8175;49.326;12.690;2023-03-01T09:03:52;7.43;;;5.67;;
16139;SDS011;8175;49.326;12.690;2023-03-01T09:06:18;10.77;;;6.10;;
16139;SDS011;8175;49.326;12.690;2023-03-01T09:08:45;8.97;;;6.03;;
16139;SDS011;8175;49.326;12.690;2023-03-01T09:11:13;10.87;;;5.67;;
16139;SDS011;8175;49.326;12.690;2023-03-01T09:13:41;6.93;;;4.70;;
16139;SDS011;8175;49.326;12.690;2023-03-01T09:16:08;8.70;;;5.40;;
16139;SDS011;8175;49.326;12.690;2023-03-01T09:18:35;6.40;;;5.10;;
16139;SDS011;8175;49.326;12.690;2023-03-01T09:21:04;8.93;;;5.60;;
16139;SDS011;8175;49.326;12.690;2023-03-01T09:23:35;8.23;;;5.03;;
16139;SDS011;8175;49.326;12.690;2023-03-01T09:26:04;8.37;;;5.30;;
16139;SDS011;8175;49.326;12.690;2023-03-01T09:28:38;6.77;;;5.03;;
16139;SDS011;8175;49.326;12.690;2023-03-01T09:31:04;8.07;;;5.57;;
16139;SDS011;8175;49.326;12.690;2023-03-01T09:33:30;6.47;;;5.30;;
16139;SDS011;8175;49.326;12.690;2023-03-01T09:36:00;7.37;;;5.47;;
16139;SDS011;8175;49.326;12.690;2023-03-01T09:38:29;7.67;;;5.30;;
16139;SDS011;8175;49.326;12.690;2023-03-01T09:40:55;8.27;;;6.27;;
16139;SDS011;8175;49.326;12.690;2023-03-01T09:45:52;6.33;;;5.70;;
16139;SDS011;8175;49.326;12.690;2023-03-01T09:48:21;8.90;;;5.40;;
16139;SDS011;8175;49.326;12.690;2023-03-01T09:50:51;9.13;;;6.30;;
16139;SDS011;8175;49.326;12.690;2023-03-01T09:53:29;8.00;;;6.00;;
16139;SDS011;8175;49.326;12.690;2023-03-01T09:56:02;9.57;;;6.87;;
16139;SDS011;8175;49.326;12.690;2023-03-01T09:58:39;8.70;;;6.37;;
16139;SDS011;8175;49.326;12.690;2023-03-01T10:04:02;11.87;;;8.60;;
16139;SDS011;8175;49.326;12.690;2023-03-01T10:06:43;10.43;;;7.80;;
16139;SDS011;8175;49.326;12.690;2023-03-01T10:09:17;10.47;;;7.97;;
16139;SDS011;8175;49.326;12.690;2023-03-01T10:11:48;9.03;;;8.07;;
16139;SDS011;8175;49.326;12.690;2023-03-01T10:24:53;13.30;;;10.40;;
16139;SDS011;8175;49.326;12.690;2023-03-01T10:27:22;11.20;;;8.73;;
16139;SDS011;8175;49.326;12.690;2023-03-01T10:32:41;11.87;;;9.13;;
16139;SDS011;8175;49.326;12.690;2023-03-01T10:35:18;12.67;;;9.87;;
16139;SDS011;8175;49.326;12.690;2023-03-01T10:40:28;13.47;;;9.97;;
16139;SDS011;8175;49.326;12.690;2023-03-01T10:42:54;14.80;;;10.57;;
16139;SDS011;8175;49.326;12.690;2023-03-01T10:45:31;15.37;;;11.07;;
16139;SDS011;8175;49.326;12.690;2023-03-01T10:50:30;13.20;;;9.63;;
16139;SDS011;8175;49.326;12.690;2023-03-01T10:53:03;13.07;;;10.77;;
16139;SDS011;8175;49.326;12.690;2023-03-01T10:55:31;14.97;;;11.23;;
16139;SDS011;8175;49.326;12.690;2023-03-01T10:58:20;15.17;;;11.50;;
16139;SDS011;8175;49.326;12.690;2023-03-01T11:03:24;13.70;;;10.77;;
16139;SDS011;8175;49.326;12.690;2023-03-01T11:05:53;14.77;;;10.47;;
16139;SDS011;8175;49.326;12.690;2023-03-01T11:11:06;14.07;;;11.97;;
16139;SDS011;8175;49.326;12.690;2023-03-01T11:13:53;13.70;;;11.37;;
16139;SDS011;8175;49.326;12.690;2023-03-01T11:16:27;17.03;;;12.23;;
16139;SDS011;8175;49.326;12.690;2023-03-01T11:19:07;13.60;;;11.60;;
16139;SDS011;8175;49.326;12.690;2023-03-01T11:24:24;16.60;;;11.97;;
16139;SDS011;8175;49.326;12.690;2023-03-01T11:27:34;13.03;;;11.33;;
16139;SDS011;8175;49.326;12.690;2023-03-01T11:35:57;14.60;;;11.63;;
16139;SDS011;8175;49.326;12.690;2023-03-01T11:38:36;15.73;;;13.17;;
16139;SDS011;8175;49.326;12.690;2023-03-01T11:41:14;12.83;;;11.50;;
16139;SDS011;8175;49.326;12.690;2023-03-01T11:57:43;16.53;;;13.33;;
16139;SDS011;8175;49.326;12.690;2023-03-01T12:05:55;16.53;;;13.10;;
16139;SDS011;8175;49.326;12.690;2023-03-01T12:11:25;15.60;;;13.23;;
16139;SDS011;8175;49.326;12.690;2023-03-01T12:19:46;19.67;;;14.47;;
16139;SDS011;8175;49.326;12.690;2023-03-01T12:25:16;21.10;;;15.47;;
16139;SDS011;8175;49.326;12.690;2023-03-01T12:42:04;16.80;;;12.93;;
16139;SDS011;8175;49.326;12.690;2023-03-01T12:47:46;15.00;;;12.17;;
16139;SDS011;8175;49.326;12.690;2023-03-01T12:50:21;17.43;;;12.30;;
16139;SDS011;8175;49.326;12.690;2023-03-01T12:52:57;14.70;;;12.77;;
16139;SDS011;8175;49.326;12.690;2023-03-01T12:55:58;14.47;;;11.00;;
16139;SDS011;8175;49.326;12.690;2023-03-01T13:01:03;15.03;;;12.30;;
16139;SDS011;8175;49.326;12.690;2023-03-01T13:18:49;15.77;;;11.27;;
16139;SDS011;8175;49.326;12.690;2023-03-01T13:20:57;14.80;;;11.03;;
16139;SDS011;8175;49.326;12.690;2023-03-01T13:23:26;15.77;;;12.17;;
16139;SDS011;8175;49.326;12.690;2023-03-01T13:46:56;15.53;;;12.57;;
16139;SDS011;8175;49.326;12.690;2023-03-01T13:49:26;19.97;;;13.43;;
16139;SDS011;8175;49.326;12.690;2023-03-01T13:51:54;18.57;;;12.60;;
16139;SDS011;8175;49.326;12.690;2023-03-01T13:54:28;18.27;;;12.90;;
16139;SDS011;8175;49.326;12.690;2023-03-01T13:56:56;17.27;;;13.60;;
16139;SDS011;8175;49.326;12.690;2023-03-01T13:59:24;16.07;;;12.03;;
16139;SDS011;8175;49.326;12.690;2023-03-01T14:01:56;15.17;;;12.00;;
16139;SDS011;8175;49.326;12.690;2023-03-01T14:04:32;19.03;;;13.17;;
16139;SDS011;8175;49.326;12.690;2023-03-01T14:10:02;14.70;;;11.57;;
16139;SDS011;8175;49.326;12.690;2023-03-01T14:18:18;16.73;;;11.87;;
16139;SDS011;8175;49.326;12.690;2023-03-01T14:20:54;17.13;;;12.70;;
16139;SDS011;8175;49.326;12.690;2023-03-01T14:23:21;16.23;;;12.10;;
16139;SDS011;8175;49.326;12.690;2023-03-01T14:25:49;17.00;;;12.60;;
16139;SDS011;8175;49.326;12.690;2023-03-01T14:28:18;16.40;;;11.93;;
16139;SDS011;8175;49.326;12.690;2023-03-01T14:30:55;14.53;;;11.77;;
16139;SDS011;8175;49.326;12.690;2023-03-01T14:38:22;14.37;;;11.90;;
16139;SDS011;8175;49.326;12.690;2023-03-01T14:40:55;15.73;;;12.67;;
16139;SDS011;8175;49.326;12.690;2023-03-01T14:43:24;17.13;;;12.83;;
16139;SDS011;8175;49.326;12.690;2023-03-01T14:45:53;18.50;;;13.57;;
16139;SDS011;8175;49.326;12.690;2023-03-01T14:48:19;17.50;;;12.87;;
16139;SDS011;8175;49.326;12.690;2023-03-01T14:50:45;18.23;;;13.13;;
16139;SDS011;8175;49.326;12.690;2023-03-01T14:53:15;16.90;;;13.17;;
16139;SDS011;8175;49.326;12.690;2023-03-01T14:55:47;15.63;;;12.80;;
16139;SDS011;8175;49.326;12.690;2023-03-01T14:58:18;16.37;;;13.07;;
16139;SDS011;8175;49.326;12.690;2023-03-01T15:00:56;17.00;;;11.83;;
16139;SDS011;8175;49.326;12.690;2023-03-01T15:05:58;21.27;;;13.80;;
16139;SDS011;8175;49.326;12.690;2023-03-01T15:08:25;15.77;;;12.23;;
16139;SDS011;8175;49.326;12.690;2023-03-01T15:10:59;19.87;;;15.17;;
16139;SDS011;8175;49.326;12.690;2023-03-01T15:13:43;17.93;;;12.97;;
16139;SDS011;8175;49.326;12.690;2023-03-01T15:16:12;19.87;;;13.27;;
16139;SDS011;8175;49.326;12.690;2023-03-01T15:18:51;18.33;;;12.87;;
16139;SDS011;8175;49.326;12.690;2023-03-01T15:21:40;18.27;;;13.40;;
16139;SDS011;8175;49.326;12.690;2023-03-01T15:26:44;19.03;;;14.43;;
16139;SDS011;8175;49.326;12.690;2023-03-01T15:29:21;18.17;;;14.17;;
16139;SDS011;8175;49.326;12.690;2023-03-01T15:32:02;19.53;;;13.60;;
16139;SDS011;8175;49.326;12.690;2023-03-01T15:34:33;17.93;;;13.97;;
16139;SDS011;8175;49.326;12.690;2023-03-01T15:37:04;21.30;;;14.07;;
16139;SDS011;8175;49.326;12.690;2023-03-01T15:39:55;20.97;;;13.53;;
16139;SDS011;8175;49.326;12.690;2023-03-01T15:47:40;17.37;;;13.10;;
16139;SDS011;8175;49.326;12.690;2023-03-01T15:50:16;25.80;;;14.43;;
16139;SDS011;8175;49.326;12.690;2023-03-01T15:52:45;19.53;;;13.30;;
16139;SDS011;8175;49.326;12.690;2023-03-01T15:55:30;20.57;;;14.73;;
16139;SDS011;8175;49.326;12.690;2023-03-01T15:57:59;22.20;;;15.00;;
16139;SDS011;8175;49.326;12.690;2023-03-01T16:00:28;19.73;;;13.83;;
16139;SDS011;8175;49.326;12.690;2023-03-01T16:02:54;25.63;;;14.33;;
16139;SDS011;8175;49.326;12.690;2023-03-01T16:05:24;22.87;;;14.67;;
16139;SDS011;8175;49.326;12.690;2023-03-01T16:07:52;21.67;;;13.53;;
16139;SDS011;8175;49.326;12.690;2023-03-01T16:10:18;22.27;;;14.37;;
16139;SDS011;8175;49.326;12.690;2023-03-01T16:12:45;23.17;;;13.77;;
16139;SDS011;8175;49.326;12.690;2023-03-01T16:15:31;18.50;;;14.07;;
16139;SDS011;8175;49.326;12.690;2023-03-01T16:18:01;18.90;;;12.90;;
16139;SDS011;8175;49.326;12.690;2023-03-01T16:20:27;19.40;;;14.50;;
16139;SDS011;8175;49.326;12.690;2023-03-01T16:22:54;20.33;;;13.87;;
16139;SDS011;8175;49.326;12.690;2023-03-01T16:25:25;18.80;;;13.40;;
16139;SDS011;8175;49.326;12.690;2023-03-01T16:27:50;18.77;;;13.20;;
16139;SDS011;8175;49.326;12.690;2023-03-01T16:30:18;19.10;;;12.77;;
16139;SDS011;8175;49.326;12.690;2023-03-01T16:32:45;22.70;;;13.73;;
16139;SDS011;8175;49.326;12.690;2023-03-01T16:35:13;17.47;;;13.00;;
16139;SDS011;8175;49.326;12.690;2023-03-01T16:37:41;20.23;;;13.27;;
16139;SDS011;8175;49.326;12.690;2023-03-01T16:40:15;19.20;;;13.30;;
16139;SDS011;8175;49.326;12.690;2023-03-01T16:42:43;17.77;;;14.03;;
16139;SDS011;8175;49.326;12.690;2023-03-01T16:45:08;19.77;;;13.73;;
16139;SDS011;8175;49.326;12.690;2023-03-01T16:47:34;18.77;;;13.27;;
16139;SDS011;8175;49.326;12.690;2023-03-01T16:50:00;16.80;;;12.60;;
16139;SDS011;8175;49.326;12.690;2023-03-01T16:52:27;17.97;;;12.23;;
16139;SDS011;8175;49.326;12.690;2023-03-01T16:54:52;16.07;;;11.43;;
16139;SDS011;8175;49.326;12.690;2023-03-01T16:57:18;18.00;;;12.77;;
16139;SDS011;8175;49.326;12.690;2023-03-01T16:59:44;19.37;;;13.43;;
16139;SDS011;8175;49.326;12.690;2023-03-01T17:02:10;20.17;;;12.40;;
16139;SDS011;8175;49.326;12.690;2023-03-01T17:04:38;17.07;;;11.77;;
16139;SDS011;8175;49.326;12.690;2023-03-01T17:07:04;21.63;;;13.87;;
16139;SDS011;8175;49.326;12.690;2023-03-01T17:09:33;17.07;;;12.70;;
16139;SDS011;8175;49.326;12.690;2023-03-01T17:11:59;17.97;;;12.30;;
16139;SDS011;8175;49.326;12.690;2023-03-01T17:14:25;17.53;;;13.30;;